sensor_id;sensor_type;location;lat;lon;timestamp;P1;durP1;ratioP1;P2;durP2;ratioP2
2053;SDS011;1032;52.542;13.440;2023-04-08T00:00:54;20.00;;;15.57;;
2053;SDS011;1032;52.542;13.440;2023-04-08T00:03:21;17.40;;;14.10;;
2053;SDS011;1032;52.542;13.440;2023-04-08T00:05:48;18.33;;;14.13;;
2053;SDS011;1032;52.542;13.440;2023-04-08T00:08:15;16.77;;;14.30;;
2053;SDS011;1032;52.542;13.440;2023-04-08T00:10:42;20.93;;;15.10;;
2053;SDS011;1032;52.542;13.440;2023-04-08T00:13:08;24.93;;;17.17;;
2053;SDS011;1032;52.542;13.440;2023-04-08T00:15:35;23.30;;;16.97;;
2053;SDS011;1032;52.542;13.440;2023-04-08T00:18:02;24.83;;;17.57;;
2053;SDS011;1032;52.542;13.440;2023-04-08T00:20:29;21.10;;;16.60;;
2053;SDS011;1032;52.542;13.440;2023-04-08T00:22:57;27.60;;;18.80;;
2053;SDS011;1032;52.542;13.440;2023-04-08T00:25:23;27.37;;;18.37;;
2053;SDS011;1032;52.542;13.440;2023-04-08T00:27:50;29.80;;;18.63;;
2053;SDS011;1032;52.542;13.440;2023-04-08T00:30:17;30.50;;;19.50;;
2053;SDS011;1032;52.542;13.440;2023-04-08T00:32:44;28.40;;;18.20;;
2053;SDS011;1032;52.542;13.440;2023-04-08T00:35:11;32.00;;;20.03;;
2053;SDS011;1032;52.542;13.440;2023-04-08T00:37:38;30.10;;;21.23;;
2053;SDS011;1032;52.542;13.440;2023-04-08T00:40:07;26.47;;;19.87;;
2053;SDS011;1032;52.542;13.440;2023-04-08T00:42:35;30.70;;;20.57;;
2053;SDS011;1032;52.542;13.440;2023-04-08T00:45:01;31.20;;;19.27;;
2053;SDS011;1032;52.542;13.440;2023-04-08T00:47:28;30.20;;;20.00;;
2053;SDS011;1032;52.542;13.440;2023-04-08T00:49:55;32.10;;;20.83;;
2053;SDS011;1032;52.542;13.440;2023-04-08T00:52:22;25.90;;;18.47;;
2053;SDS011;1032;52.542;13.440;2023-04-08T00:54:49;31.70;;;20.90;;
2053;SDS011;1032;52.542;13.440;2023-04-08T00:57:17;35.00;;;21.90;;
2053;SDS011;1032;52.542;13.440;2023-04-08T00:59:44;31.43;;;20.90;;
2053;SDS011;1032;52.542;13.440;2023-04-08T01:02:11;33.80;;;22.17;;
2053;SDS011;1032;52.542;13.440;2023-04-08T01:04:43;33.70;;;21.83;;
2053;SDS011;1032;52.542;13.440;2023-04-08T01:07:19;36.87;;;21.60;;
2053;SDS011;1032;52.542;13.440;2023-04-08T01:09:50;34.10;;;22.17;;
2053;SDS011;1032;52.542;13.440;2023-04-08T01:12:24;33.40;;;22.70;;
2053;SDS011;1032;52.542;13.440;2023-04-08T01:14:54;34.77;;;21.80;;
2053;SDS011;1032;52.542;13.440;2023-04-08T01:17:26;31.10;;;21.77;;
2053;SDS011;1032;52.542;13.440;2023-04-08T01:19:55;34.07;;;22.00;;
2053;SDS011;1032;52.542;13.440;2023-04-08T01:22:26;36.63;;;24.97;;
2053;SDS011;1032;52.542;13.440;2023-04-08T01:25:01;35.30;;;23.93;;
2053;SDS011;1032;52.542;13.440;2023-04-08T01:27:33;37.20;;;23.63;;
2053;SDS011;1032;52.542;13.440;2023-04-08T01:30:02;32.83;;;24.77;;
2053;SDS011;1032;52.542;13.440;2023-04-08T01:32:31;33.33;;;23.07;;
2053;SDS011;1032;52.542;13.440;2023-04-08T01:34:59;36.80;;;24.47;;
2053;SDS011;1032;52.542;13.440;2023-04-08T01:37:27;36.47;;;23.53;;
2053;SDS011;1032;52.542;13.440;2023-04-08T01:39:55;40.13;;;24.90;;
2053;SDS011;1032;52.542;13.440;2023-04-08T01:42:23;38.67;;;23.87;;
2053;SDS011;1032;52.542;13.440;2023-04-08T01:44:54;40.00;;;25.20;;
2053;SDS011;1032;52.542;13.440;2023-04-08T01:47:23;37.80;;;23.67;;
2053;SDS011;1032;52.542;13.440;2023-04-08T01:49:51;40.10;;;26.00;;
2053;SDS011;1032;52.542;13.440;2023-04-08T01:52:18;46.33;;;24.53;;
2053;SDS011;1032;52.542;13.440;2023-04-08T01:54:46;43.10;;;26.30;;
2053;SDS011;1032;52.542;13.440;2023-04-08T01:57:13;35.83;;;24.47;;
2053;SDS011;1032;52.542;13.440;2023-04-08T01:59:44;39.80;;;25.47;;
2053;SDS011;1032;52.542;13.440;2023-04-08T02:02:16;35.33;;;24.17;;
2053;SDS011;1032;52.542;13.440;2023-04-08T02:04:46;37.97;;;25.00;;
2053;SDS011;1032;52.542;13.440;2023-04-08T02:07:13;35.87;;;23.23;;
2053;SDS011;1032;52.542;13.440;2023-04-08T02:09:40;41.30;;;25.70;;
2053;SDS011;1032;52.542;13.440;2023-04-08T02:12:07;37.23;;;26.10;;
2053;SDS011;1032;52.542;13.440;2023-04-08T02:14:33;35.33;;;25.13;;
2053;SDS011;1032;52.542;13.440;2023-04-08T02:17:01;40.10;;;25.07;;
2053;SDS011;1032;52.542;13.440;2023-04-08T02:19:38;39.10;;;23.97;;
2053;SDS011;1032;52.542;13.440;2023-04-08T02:22:11;43.27;;;27.57;;
2053;SDS011;1032;52.542;13.440;2023-04-08T02:24:43;42.50;;;24.97;;
2053;SDS011;1032;52.542;13.440;2023-04-08T02:27:12;39.40;;;23.67;;
2053;SDS011;1032;52.542;13.440;2023-04-08T02:29:39;41.10;;;23.67;;
2053;SDS011;1032;52.542;13.440;2023-04-08T02:32:07;35.33;;;24.30;;
2053;SDS011;1032;52.542;13.440;2023-04-08T02:34:37;45.17;;;24.50;;
2053;SDS011;1032;52.542;13.440;2023-04-08T02:37:05;36.33;;;23.97;;
2053;SDS011;1032;52.542;13.440;2023-04-08T02:39:33;44.87;;;25.63;;
2053;SDS011;1032;52.542;13.440;2023-04-08T02:42:00;38.60;;;24.50;;
2053;SDS011;1032;52.542;13.440;2023-04-08T02:44:27;44.67;;;24.93;;
2053;SDS011;1032;52.542;13.440;2023-04-08T02:46:56;42.67;;;24.83;;
2053;SDS011;1032;52.542;13.440;2023-04-08T02:49:23;47.23;;;25.07;;
2053;SDS011;1032;52.542;13.440;2023-04-08T02:51:51;39.87;;;23.57;;
2053;SDS011;1032;52.542;13.440;2023-04-08T02:54:17;41.50;;;25.93;;
2053;SDS011;1032;52.542;13.440;2023-04-08T02:56:44;38.97;;;25.13;;
2053;SDS011;1032;52.542;13.440;2023-04-08T02:59:11;40.50;;;24.13;;
2053;SDS011;1032;52.542;13.440;2023-04-08T03:01:37;43.47;;;26.90;;
2053;SDS011;1032;52.542;13.440;2023-04-08T03:04:04;43.57;;;25.80;;
2053;SDS011;1032;52.542;13.440;2023-04-08T03:06:31;41.10;;;24.80;;
2053;SDS011;1032;52.542;13.440;2023-04-08T03:08:59;44.90;;;26.30;;
2053;SDS011;1032;52.542;13.440;2023-04-08T03:11:25;43.13;;;25.40;;
2053;SDS011;1032;52.542;13.440;2023-04-08T03:13:52;42.57;;;25.37;;
2053;SDS011;1032;52.542;13.440;2023-04-08T03:16:19;43.93;;;27.23;;
2053;SDS011;1032;52.542;13.440;2023-04-08T03:18:45;46.90;;;26.73;;
2053;SDS011;1032;52.542;13.440;2023-04-08T03:21:12;44.70;;;26.63;;
2053;SDS011;1032;52.542;13.440;2023-04-08T03:23:38;48.97;;;26.70;;
2053;SDS011;1032;52.542;13.440;2023-04-08T03:26:06;45.50;;;27.70;;
2053;SDS011;1032;52.542;13.440;2023-04-08T03:28:33;41.53;;;26.93;;
2053;SDS011;1032;52.542;13.440;2023-04-08T03:31:01;45.10;;;27.90;;
2053;SDS011;1032;52.542;13.440;2023-04-08T03:33:28;47.23;;;27.17;;
2053;SDS011;1032;52.542;13.440;2023-04-08T03:35:55;45.87;;;26.73;;
2053;SDS011;1032;52.542;13.440;2023-04-08T03:38:22;46.87;;;28.47;;
2053;SDS011;1032;52.542;13.440;2023-04-08T03:40:49;52.60;;;28.70;;
2053;SDS011;1032;52.542;13.440;2023-04-08T03:43:16;50.50;;;27.50;;
2053;SDS011;1032;52.542;13.440;2023-04-08T03:45:45;47.73;;;26.47;;
2053;SDS011;1032;52.542;13.440;2023-04-08T03:48:12;43.33;;;27.87;;
2053;SDS011;1032;52.542;13.440;2023-04-08T03:50:39;43.73;;;26.97;;
2053;SDS011;1032;52.542;13.440;2023-04-08T03:53:05;51.17;;;28.80;;
2053;SDS011;1032;52.542;13.440;2023-04-08T03:55:35;49.87;;;27.10;;
2053;SDS011;1032;52.542;13.440;2023-04-08T03:58:01;47.53;;;27.50;;
2053;SDS011;1032;52.542;13.440;2023-04-08T04:00:30;42.90;;;26.83;;
2053;SDS011;1032;52.542;13.440;2023-04-08T04:02:57;49.70;;;28.60;;
2053;SDS011;1032;52.542;13.440;2023-04-08T04:05:23;49.47;;;27.70;;
2053;SDS011;1032;52.542;13.440;2023-04-08T04:07:50;49.00;;;28.17;;
2053;SDS011;1032;52.542;13.440;2023-04-08T04:10:16;58.33;;;28.47;;
2053;SDS011;1032;52.542;13.440;2023-04-08T04:12:43;54.90;;;29.73;;
2053;SDS011;1032;52.542;13.440;2023-04-08T04:15:11;43.30;;;26.93;;
2053;SDS011;1032;52.542;13.440;2023-04-08T04:17:39;50.13;;;31.07;;
2053;SDS011;1032;52.542;13.440;2023-04-08T04:20:07;51.43;;;29.17;;
2053;SDS011;1032;52.542;13.440;2023-04-08T04:22:34;47.70;;;28.53;;
2053;SDS011;1032;52.542;13.440;2023-04-08T04:25:00;48.20;;;28.37;;
2053;SDS011;1032;52.542;13.440;2023-04-08T04:27:27;48.67;;;28.37;;
2053;SDS011;1032;52.542;13.440;2023-04-08T04:29:54;53.87;;;27.50;;
2053;SDS011;1032;52.542;13.440;2023-04-08T04:32:21;51.97;;;30.17;;
2053;SDS011;1032;52.542;13.440;2023-04-08T04:34:49;47.53;;;27.70;;
2053;SDS011;1032;52.542;13.440;2023-04-08T04:37:15;50.70;;;28.53;;
2053;SDS011;1032;52.542;13.440;2023-04-08T04:39:42;40.60;;;27.10;;
2053;SDS011;1032;52.542;13.440;2023-04-08T04:42:09;46.53;;;28.20;;
2053;SDS011;1032;52.542;13.440;2023-04-08T04:44:35;44.40;;;27.30;;
2053;SDS011;1032;52.542;13.440;2023-04-08T04:47:02;42.50;;;26.93;;
2053;SDS011;1032;52.542;13.440;2023-04-08T04:49:29;40.80;;;27.17;;
2053;SDS011;1032;52.542;13.440;2023-04-08T04:51:57;39.30;;;26.87;;
2053;SDS011;1032;52.542;13.440;2023-04-08T04:54:24;47.93;;;27.50;;
2053;SDS011;1032;52.542;13.440;2023-04-08T04:56:50;49.70;;;27.43;;
2053;SDS011;1032;52.542;13.440;2023-04-08T04:59:17;47.57;;;26.60;;
2053;SDS011;1032;52.542;13.440;2023-04-08T05:01:44;46.90;;;29.00;;
2053;SDS011;1032;52.542;13.440;2023-04-08T05:04:11;46.93;;;28.90;;
2053;SDS011;1032;52.542;13.440;2023-04-08T05:06:37;45.23;;;29.57;;
2053;SDS011;1032;52.542;13.440;2023-04-08T05:09:05;45.93;;;31.13;;
2053;SDS011;1032;52.542;13.440;2023-04-08T05:11:32;47.53;;;30.70;;
2053;SDS011;1032;52.542;13.440;2023-04-08T05:13:59;49.37;;;29.67;;
2053;SDS011;1032;52.542;13.440;2023-04-08T05:16:25;52.50;;;30.50;;
2053;SDS011;1032;52.542;13.440;2023-04-08T05:18:52;53.73;;;29.30;;
2053;SDS011;1032;52.542;13.440;2023-04-08T05:21:19;47.37;;;30.27;;
2053;SDS011;1032;52.542;13.440;2023-04-08T05:23:45;56.33;;;30.50;;
2053;SDS011;1032;52.542;13.440;2023-04-08T05:26:13;51.73;;;28.87;;
2053;SDS011;1032;52.542;13.440;2023-04-08T05:28:40;53.50;;;31.80;;
2053;SDS011;1032;52.542;13.440;2023-04-08T05:31:06;51.80;;;29.17;;
2053;SDS011;1032;52.542;13.440;2023-04-08T05:33:33;62.20;;;32.13;;
2053;SDS011;1032;52.542;13.440;2023-04-08T05:36:00;57.30;;;32.60;;
2053;SDS011;1032;52.542;13.440;2023-04-08T05:38:26;48.00;;;30.97;;
2053;SDS011;1032;52.542;13.440;2023-04-08T05:40:53;53.20;;;31.43;;
2053;SDS011;1032;52.542;13.440;2023-04-08T05:43:21;52.87;;;31.07;;
2053;SDS011;1032;52.542;13.440;2023-04-08T05:45:48;52.97;;;31.27;;
2053;SDS011;1032;52.542;13.440;2023-04-08T05:48:14;51.87;;;30.10;;
2053;SDS011;1032;52.542;13.440;2023-04-08T05:50:41;57.63;;;32.53;;
2053;SDS011;1032;52.542;13.440;2023-04-08T05:53:08;59.17;;;33.03;;
2053;SDS011;1032;52.542;13.440;2023-04-08T05:55:34;56.20;;;31.73;;
2053;SDS011;1032;52.542;13.440;2023-04-08T05:58:01;56.40;;;31.73;;
2053;SDS011;1032;52.542;13.440;2023-04-08T06:00:29;50.30;;;32.27;;
2053;SDS011;1032;52.542;13.440;2023-04-08T06:02:56;57.23;;;33.70;;
2053;SDS011;1032;52.542;13.440;2023-04-08T06:05:22;55.27;;;33.30;;
2053;SDS011;1032;52.542;13.440;2023-04-08T06:07:49;60.23;;;32.30;;
2053;SDS011;1032;52.542;13.440;2023-04-08T06:10:16;57.77;;;31.73;;
2053;SDS011;1032;52.542;13.440;2023-04-08T06:12:43;59.50;;;32.40;;
2053;SDS011;1032;52.542;13.440;2023-04-08T06:15:09;61.33;;;32.57;;
2053;SDS011;1032;52.542;13.440;2023-04-08T06:17:37;56.50;;;31.23;;
2053;SDS011;1032;52.542;13.440;2023-04-08T06:20:05;60.87;;;34.07;;
2053;SDS011;1032;52.542;13.440;2023-04-08T06:22:33;54.80;;;32.40;;
2053;SDS011;1032;52.542;13.440;2023-04-08T06:25:00;61.30;;;34.20;;
2053;SDS011;1032;52.542;13.440;2023-04-08T06:27:26;52.93;;;31.87;;
2053;SDS011;1032;52.542;13.440;2023-04-08T06:29:53;57.10;;;32.73;;
2053;SDS011;1032;52.542;13.440;2023-04-08T06:32:20;58.30;;;32.10;;
2053;SDS011;1032;52.542;13.440;2023-04-08T06:34:48;63.77;;;35.37;;
2053;SDS011;1032;52.542;13.440;2023-04-08T06:37:14;66.23;;;33.33;;
2053;SDS011;1032;52.542;13.440;2023-04-08T06:39:41;50.80;;;33.17;;
2053;SDS011;1032;52.542;13.440;2023-04-08T06:42:08;56.03;;;33.03;;
2053;SDS011;1032;52.542;13.440;2023-04-08T06:44:59;54.13;;;32.60;;
2053;SDS011;1032;52.542;13.440;2023-04-08T06:47:26;54.43;;;32.63;;
2053;SDS011;1032;52.542;13.440;2023-04-08T06:49:54;53.33;;;32.20;;
2053;SDS011;1032;52.542;13.440;2023-04-08T06:52:21;58.20;;;33.40;;
2053;SDS011;1032;52.542;13.440;2023-04-08T06:54:47;53.97;;;31.43;;
2053;SDS011;1032;52.542;13.440;2023-04-08T06:57:14;58.50;;;33.30;;
2053;SDS011;1032;52.542;13.440;2023-04-08T06:59:41;59.73;;;33.73;;
2053;SDS011;1032;52.542;13.440;2023-04-08T07:02:08;47.70;;;30.30;;
2053;SDS011;1032;52.542;13.440;2023-04-08T07:04:34;47.10;;;31.20;;
2053;SDS011;1032;52.542;13.440;2023-04-08T07:07:03;60.20;;;33.80;;
2053;SDS011;1032;52.542;13.440;2023-04-08T07:09:29;55.37;;;32.20;;
2053;SDS011;1032;52.542;13.440;2023-04-08T07:11:56;50.83;;;31.60;;
2053;SDS011;1032;52.542;13.440;2023-04-08T07:14:23;54.70;;;31.20;;
2053;SDS011;1032;52.542;13.440;2023-04-08T07:16:50;49.50;;;30.00;;
2053;SDS011;1032;52.542;13.440;2023-04-08T07:19:17;51.30;;;30.53;;
2053;SDS011;1032;52.542;13.440;2023-04-08T07:21:43;43.73;;;30.90;;
2053;SDS011;1032;52.542;13.440;2023-04-08T07:24:12;50.37;;;32.07;;
2053;SDS011;1032;52.542;13.440;2023-04-08T07:26:38;45.00;;;29.90;;
2053;SDS011;1032;52.542;13.440;2023-04-08T07:29:05;46.93;;;30.33;;
2053;SDS011;1032;52.542;13.440;2023-04-08T07:31:32;45.57;;;29.13;;
2053;SDS011;1032;52.542;13.440;2023-04-08T07:33:58;45.00;;;28.33;;
2053;SDS011;1032;52.542;13.440;2023-04-08T07:36:25;49.53;;;29.80;;
2053;SDS011;1032;52.542;13.440;2023-04-08T07:38:52;48.87;;;30.20;;
2053;SDS011;1032;52.542;13.440;2023-04-08T07:41:20;47.93;;;29.70;;
2053;SDS011;1032;52.542;13.440;2023-04-08T07:43:46;51.17;;;32.03;;
2053;SDS011;1032;52.542;13.440;2023-04-08T07:46:13;49.43;;;32.83;;
2053;SDS011;1032;52.542;13.440;2023-04-08T07:48:40;47.13;;;30.23;;
2053;SDS011;1032;52.542;13.440;2023-04-08T07:51:07;43.60;;;30.27;;
2053;SDS011;1032;52.542;13.440;2023-04-08T07:53:34;44.67;;;29.73;;
2053;SDS011;1032;52.542;13.440;2023-04-08T07:56:01;47.87;;;30.67;;
2053;SDS011;1032;52.542;13.440;2023-04-08T07:58:30;52.37;;;32.40;;
2053;SDS011;1032;52.542;13.440;2023-04-08T08:00:57;44.10;;;29.27;;
2053;SDS011;1032;52.542;13.440;2023-04-08T08:03:23;48.90;;;29.70;;
2053;SDS011;1032;52.542;13.440;2023-04-08T08:05:51;45.20;;;29.57;;
2053;SDS011;1032;52.542;13.440;2023-04-08T08:08:17;42.43;;;29.20;;
2053;SDS011;1032;52.542;13.440;2023-04-08T08:10:44;44.23;;;28.83;;
2053;SDS011;1032;52.542;13.440;2023-04-08T08:13:11;44.90;;;30.07;;
2053;SDS011;1032;52.542;13.440;2023-04-08T08:15:42;48.90;;;30.63;;
2053;SDS011;1032;52.542;13.440;2023-04-08T08:18:09;45.47;;;30.50;;
2053;SDS011;1032;52.542;13.440;2023-04-08T08:20:35;50.60;;;30.77;;
2053;SDS011;1032;52.542;13.440;2023-04-08T08:23:02;46.60;;;28.50;;
2053;SDS011;1032;52.542;13.440;2023-04-08T08:25:29;51.10;;;31.20;;
2053;SDS011;1032;52.542;13.440;2023-04-08T08:27:56;48.70;;;30.13;;
2053;SDS011;1032;52.542;13.440;2023-04-08T08:30:22;49.27;;;30.17;;
2053;SDS011;1032;52.542;13.440;2023-04-08T08:32:51;45.00;;;30.73;;
2053;SDS011;1032;52.542;13.440;2023-04-08T08:35:18;44.47;;;30.30;;
2053;SDS011;1032;52.542;13.440;2023-04-08T08:37:45;48.40;;;29.53;;
2053;SDS011;1032;52.542;13.440;2023-04-08T08:40:12;45.07;;;29.63;;
2053;SDS011;1032;52.542;13.440;2023-04-08T08:42:39;42.03;;;29.80;;
2053;SDS011;1032;52.542;13.440;2023-04-08T08:45:06;45.43;;;28.50;;
2053;SDS011;1032;52.542;13.440;2023-04-08T08:47:33;45.73;;;28.80;;
2053;SDS011;1032;52.542;13.440;2023-04-08T08:50:01;43.00;;;29.73;;
2053;SDS011;1032;52.542;13.440;2023-04-08T08:52:29;40.20;;;28.33;;
2053;SDS011;1032;52.542;13.440;2023-04-08T08:54:56;47.77;;;31.30;;
2053;SDS011;1032;52.542;13.440;2023-04-08T08:57:23;40.83;;;28.70;;
2053;SDS011;1032;52.542;13.440;2023-04-08T08:59:51;41.90;;;28.90;;
2053;SDS011;1032;52.542;13.440;2023-04-08T09:02:25;41.53;;;28.10;;
2053;SDS011;1032;52.542;13.440;2023-04-08T09:04:56;37.20;;;26.20;;
2053;SDS011;1032;52.542;13.440;2023-04-08T09:07:25;40.30;;;27.80;;
2053;SDS011;1032;52.542;13.440;2023-04-08T09:09:53;37.03;;;26.47;;
2053;SDS011;1032;52.542;13.440;2023-04-08T09:12:21;39.50;;;27.90;;
2053;SDS011;1032;52.542;13.440;2023-04-08T09:14:48;43.73;;;29.00;;
2053;SDS011;1032;52.542;13.440;2023-04-08T09:17:16;39.13;;;28.10;;
2053;SDS011;1032;52.542;13.440;2023-04-08T09:20:03;45.20;;;28.93;;
2053;SDS011;1032;52.542;13.440;2023-04-08T09:22:58;42.33;;;29.27;;
2053;SDS011;1032;52.542;13.440;2023-04-08T09:25:26;39.30;;;27.00;;
2053;SDS011;1032;52.542;13.440;2023-04-08T09:27:54;37.50;;;26.20;;
2053;SDS011;1032;52.542;13.440;2023-04-08T09:30:21;35.30;;;26.57;;
2053;SDS011;1032;52.542;13.440;2023-04-08T09:32:49;43.90;;;29.30;;
2053;SDS011;1032;52.542;13.440;2023-04-08T09:35:17;37.37;;;27.13;;
2053;SDS011;1032;52.542;13.440;2023-04-08T09:37:44;38.47;;;28.27;;
2053;SDS011;1032;52.542;13.440;2023-04-08T09:40:13;45.27;;;27.57;;
2053;SDS011;1032;52.542;13.440;2023-04-08T09:42:43;38.10;;;26.40;;
2053;SDS011;1032;52.542;13.440;2023-04-08T09:45:11;40.90;;;27.50;;
2053;SDS011;1032;52.542;13.440;2023-04-08T09:47:41;40.60;;;28.50;;
2053;SDS011;1032;52.542;13.440;2023-04-08T09:50:26;36.57;;;26.93;;
2053;SDS011;1032;52.542;13.440;2023-04-08T09:52:59;38.70;;;27.73;;
2053;SDS011;1032;52.542;13.440;2023-04-08T09:55:29;39.57;;;27.27;;
2053;SDS011;1032;52.542;13.440;2023-04-08T09:58:00;38.43;;;28.50;;
2053;SDS011;1032;52.542;13.440;2023-04-08T10:00:33;38.20;;;27.07;;
2053;SDS011;1032;52.542;13.440;2023-04-08T10:03:05;38.73;;;26.90;;
2053;SDS011;1032;52.542;13.440;2023-04-08T10:05:36;39.70;;;28.80;;
2053;SDS011;1032;52.542;13.440;2023-04-08T10:08:05;38.43;;;27.67;;
2053;SDS011;1032;52.542;13.440;2023-04-08T10:10:34;38.23;;;28.47;;
2053;SDS011;1032;52.542;13.440;2023-04-08T10:13:03;36.70;;;26.00;;
2053;SDS011;1032;52.542;13.440;2023-04-08T10:15:31;33.30;;;24.00;;
2053;SDS011;1032;52.542;13.440;2023-04-08T10:20:56;37.33;;;25.90;;
2053;SDS011;1032;52.542;13.440;2023-04-08T10:23:51;34.10;;;28.00;;
2053;SDS011;1032;52.542;13.440;2023-04-08T10:26:30;33.10;;;25.80;;
2053;SDS011;1032;52.542;13.440;2023-04-08T10:31:56;28.53;;;21.03;;
2053;SDS011;1032;52.542;13.440;2023-04-08T10:34:23;27.90;;;21.77;;
2053;SDS011;1032;52.542;13.440;2023-04-08T10:36:51;26.23;;;21.17;;
2053;SDS011;1032;52.542;13.440;2023-04-08T10:39:19;28.90;;;23.57;;
2053;SDS011;1032;52.542;13.440;2023-04-08T10:41:48;32.50;;;22.30;;
2053;SDS011;1032;52.542;13.440;2023-04-08T10:44:15;30.33;;;23.07;;
2053;SDS011;1032;52.542;13.440;2023-04-08T10:46:43;29.43;;;22.90;;
2053;SDS011;1032;52.542;13.440;2023-04-08T10:49:10;29.27;;;23.63;;
2053;SDS011;1032;52.542;13.440;2023-04-08T10:51:36;24.63;;;21.70;;
2053;SDS011;1032;52.542;13.440;2023-04-08T10:54:04;30.07;;;22.73;;
2053;SDS011;1032;52.542;13.440;2023-04-08T10:56:32;30.00;;;20.70;;
2053;SDS011;1032;52.542;13.440;2023-04-08T10:59:01;24.33;;;20.30;;
2053;SDS011;1032;52.542;13.440;2023-04-08T11:01:36;27.93;;;20.50;;
2053;SDS011;1032;52.542;13.440;2023-04-08T11:04:06;27.33;;;21.03;;
2053;SDS011;1032;52.542;13.440;2023-04-08T11:06:37;29.23;;;21.27;;
2053;SDS011;1032;52.542;13.440;2023-04-08T11:09:04;26.10;;;21.50;;
2053;SDS011;1032;52.542;13.440;2023-04-08T11:11:30;29.13;;;22.03;;
2053;SDS011;1032;52.542;13.440;2023-04-08T11:13:57;25.10;;;20.20;;
2053;SDS011;1032;52.542;13.440;2023-04-08T11:16:25;25.87;;;21.47;;
2053;SDS011;1032;52.542;13.440;2023-04-08T11:18:53;24.47;;;20.80;;
2053;SDS011;1032;52.542;13.440;2023-04-08T11:21:22;22.67;;;19.07;;
2053;SDS011;1032;52.542;13.440;2023-04-08T11:23:49;30.03;;;22.20;;
2053;SDS011;1032;52.542;13.440;2023-04-08T11:26:16;30.40;;;21.07;;
2053;SDS011;1032;52.542;13.440;2023-04-08T11:28:43;25.13;;;21.60;;
2053;SDS011;1032;52.542;13.440;2023-04-08T11:31:11;24.20;;;21.60;;
2053;SDS011;1032;52.542;13.440;2023-04-08T11:33:44;25.93;;;22.53;;
2053;SDS011;1032;52.542;13.440;2023-04-08T11:36:12;24.83;;;20.77;;
2053;SDS011;1032;52.542;13.440;2023-04-08T11:38:39;27.43;;;21.80;;
2053;SDS011;1032;52.542;13.440;2023-04-08T11:41:06;22.93;;;20.43;;
2053;SDS011;1032;52.542;13.440;2023-04-08T11:43:32;24.90;;;20.53;;
2053;SDS011;1032;52.542;13.440;2023-04-08T11:46:07;23.30;;;20.37;;
2053;SDS011;1032;52.542;13.440;2023-04-08T11:48:34;25.50;;;20.30;;
2053;SDS011;1032;52.542;13.440;2023-04-08T11:51:04;24.30;;;20.63;;
2053;SDS011;1032;52.542;13.440;2023-04-08T11:53:33;26.30;;;21.10;;
2053;SDS011;1032;52.542;13.440;2023-04-08T11:56:14;24.53;;;20.70;;
2053;SDS011;1032;52.542;13.440;2023-04-08T11:58:42;28.90;;;22.57;;
2053;SDS011;1032;52.542;13.440;2023-04-08T12:01:09;24.67;;;20.67;;
2053;SDS011;1032;52.542;13.440;2023-04-08T12:03:36;25.70;;;21.73;;
2053;SDS011;1032;52.542;13.440;2023-04-08T12:06:04;26.20;;;21.73;;
2053;SDS011;1032;52.542;13.440;2023-04-08T12:08:32;26.90;;;22.40;;
2053;SDS011;1032;52.542;13.440;2023-04-08T12:10:59;25.90;;;22.23;;
2053;SDS011;1032;52.542;13.440;2023-04-08T12:13:26;26.23;;;19.87;;
2053;SDS011;1032;52.542;13.440;2023-04-08T12:15:53;23.13;;;17.90;;
2053;SDS011;1032;52.542;13.440;2023-04-08T12:18:19;22.60;;;19.67;;
2053;SDS011;1032;52.542;13.440;2023-04-08T12:20:46;19.93;;;17.30;;
2053;SDS011;1032;52.542;13.440;2023-04-08T12:23:14;22.03;;;19.07;;
2053;SDS011;1032;52.542;13.440;2023-04-08T12:25:41;17.30;;;15.10;;
2053;SDS011;1032;52.542;13.440;2023-04-08T12:28:08;18.37;;;15.07;;
2053;SDS011;1032;52.542;13.440;2023-04-08T12:30:35;18.60;;;16.60;;
2053;SDS011;1032;52.542;13.440;2023-04-08T12:33:02;16.43;;;14.73;;
2053;SDS011;1032;52.542;13.440;2023-04-08T12:35:29;15.90;;;14.30;;
2053;SDS011;1032;52.542;13.440;2023-04-08T12:37:56;16.33;;;14.17;;
2053;SDS011;1032;52.542;13.440;2023-04-08T12:40:24;14.10;;;12.77;;
2053;SDS011;1032;52.542;13.440;2023-04-08T12:42:50;15.10;;;13.50;;
2053;SDS011;1032;52.542;13.440;2023-04-08T12:45:17;15.37;;;13.73;;
2053;SDS011;1032;52.542;13.440;2023-04-08T12:47:44;17.87;;;14.57;;
2053;SDS011;1032;52.542;13.440;2023-04-08T12:50:10;15.33;;;13.87;;
2053;SDS011;1032;52.542;13.440;2023-04-08T12:52:37;21.07;;;16.93;;
2053;SDS011;1032;52.542;13.440;2023-04-08T12:55:04;20.37;;;17.50;;
2053;SDS011;1032;52.542;13.440;2023-04-08T12:57:32;23.30;;;15.90;;
2053;SDS011;1032;52.542;13.440;2023-04-08T12:59:59;17.50;;;15.63;;
2053;SDS011;1032;52.542;13.440;2023-04-08T13:02:26;17.37;;;15.43;;
2053;SDS011;1032;52.542;13.440;2023-04-08T13:04:52;20.73;;;15.73;;
2053;SDS011;1032;52.542;13.440;2023-04-08T13:07:19;17.43;;;15.63;;
2053;SDS011;1032;52.542;13.440;2023-04-08T13:09:46;17.10;;;15.40;;
2053;SDS011;1032;52.542;13.440;2023-04-08T13:12:13;18.07;;;16.10;;
2053;SDS011;1032;52.542;13.440;2023-04-08T13:14:41;16.30;;;14.70;;
2053;SDS011;1032;52.542;13.440;2023-04-08T13:17:08;17.60;;;14.10;;
2053;SDS011;1032;52.542;13.440;2023-04-08T13:19:35;16.13;;;14.60;;
2053;SDS011;1032;52.542;13.440;2023-04-08T13:22:01;15.10;;;13.60;;
2053;SDS011;1032;52.542;13.440;2023-04-08T13:24:28;12.40;;;11.20;;
2053;SDS011;1032;52.542;13.440;2023-04-08T13:26:55;13.33;;;12.03;;
2053;SDS011;1032;52.542;13.440;2023-04-08T13:29:22;12.07;;;10.93;;
2053;SDS011;1032;52.542;13.440;2023-04-08T13:31:50;12.80;;;11.67;;
2053;SDS011;1032;52.542;13.440;2023-04-08T13:34:17;14.40;;;13.00;;
2053;SDS011;1032;52.542;13.440;2023-04-08T13:36:44;12.80;;;11.60;;
2053;SDS011;1032;52.542;13.440;2023-04-08T13:39:10;15.00;;;12.23;;
2053;SDS011;1032;52.542;13.440;2023-04-08T13:41:37;15.80;;;14.27;;
2053;SDS011;1032;52.542;13.440;2023-04-08T13:44:04;14.10;;;12.63;;
2053;SDS011;1032;52.542;13.440;2023-04-08T13:46:31;12.30;;;11.10;;
2053;SDS011;1032;52.542;13.440;2023-04-08T13:48:59;12.70;;;11.40;;
2053;SDS011;1032;52.542;13.440;2023-04-08T13:51:27;13.20;;;11.83;;
2053;SDS011;1032;52.542;13.440;2023-04-08T13:53:53;12.30;;;11.20;;
2053;SDS011;1032;52.542;13.440;2023-04-08T13:56:21;15.40;;;13.80;;
2053;SDS011;1032;52.542;13.440;2023-04-08T13:58:47;20.17;;;16.90;;
2053;SDS011;1032;52.542;13.440;2023-04-08T14:01:14;18.43;;;16.00;;
2053;SDS011;1032;52.542;13.440;2023-04-08T14:03:41;16.27;;;14.67;;
2053;SDS011;1032;52.542;13.440;2023-04-08T14:06:09;13.90;;;12.40;;
2053;SDS011;1032;52.542;13.440;2023-04-08T14:08:35;13.83;;;12.47;;
2053;SDS011;1032;52.542;13.440;2023-04-08T14:11:02;15.37;;;13.80;;
2053;SDS011;1032;52.542;13.440;2023-04-08T14:13:29;14.37;;;12.97;;
2053;SDS011;1032;52.542;13.440;2023-04-08T14:15:57;14.60;;;13.20;;
2053;SDS011;1032;52.542;13.440;2023-04-08T14:18:26;14.00;;;12.57;;
2053;SDS011;1032;52.542;13.440;2023-04-08T14:20:53;14.17;;;12.67;;
2053;SDS011;1032;52.542;13.440;2023-04-08T14:23:21;15.17;;;13.60;;
2053;SDS011;1032;52.542;13.440;2023-04-08T14:25:48;15.23;;;13.70;;
2053;SDS011;1032;52.542;13.440;2023-04-08T14:28:14;14.30;;;12.80;;
2053;SDS011;1032;52.542;13.440;2023-04-08T14:30:41;15.60;;;13.17;;
2053;SDS011;1032;52.542;13.440;2023-04-08T14:33:08;13.50;;;12.03;;
2053;SDS011;1032;52.542;13.440;2023-04-08T14:35:34;13.90;;;12.53;;
2053;SDS011;1032;52.542;13.440;2023-04-08T14:38:01;13.80;;;12.40;;
2053;SDS011;1032;52.542;13.440;2023-04-08T14:40:29;12.37;;;10.87;;
2053;SDS011;1032;52.542;13.440;2023-04-08T14:42:56;13.57;;;12.17;;